Terminal Aerodrome Forecast
Issued by NWS

Home | Current Version | Previous Version | Text Only | Print | Product List | Glossary On
Versions: 1 2 3 4 5 6 7 8 9 10 11 12 13 14 15 16 17
000
FTUS46 KMTR 050500
TAFSJC
TAF
KSJC 050520Z 0506/0606 29004KT P6SM FEW017
     FM050800 15007KT P6SM OVC017
     FM051800 30005KT P6SM SKC
     FM052300 31014KT P6SM SKC
     FM060300 31006KT P6SM SKC=

USA.gov is the U.S. government's official web portal to all federal, state and local government web resources and services.